Terminal Aerodrome Forecast
Issued by NWS

Home | Current Version | Previous Version | Text Only | Print | Product List | Glossary On
Versions: 1 2 3 4 5 6 7 8 9 10 11 12 13 14 15
000
FTUS44 KLIX 262335
TAFMSY
TAF
KMSY 262335Z 2700/2724 20007KT P6SM VCSH FEW015 BKN040
     FM270300 30011KT P6SM BKN010
     FM270600 34013G19KT P6SM OVC010
     FM271200 34013KT P6SM FEW250=

USA.gov is the U.S. government's official web portal to all federal, state and local government web resources and services.